TAF and METAR

Decoding for American and Canadian METARs and TAFs is not fully implemented.

Could not understand the following METAR

KLSV 061158Z AUTO 19011KT 10SM CLR 29/05 A2974 RMK AO2 SLP042 T02910045 10338 20291 51002 $

TAF for Nellis Air Force Base

TAF KLSV 060700Z 0607/0713 18010KT 9999 SKC QNH2971INS BECMG 0617/0618 18010G15KT 9999 SKC QNH2969INS TEMPO 0622/0702 22015G25KT 520009 BECMG 0703/0704 30012KT 9999 SKC QNH2973INS BECMG 0705/0706 VRB06KT 9999 SKC QNH2979INS TX40/0622Z TN26/0613Z
Report created 6. aug 09:00

between 6. aug 09:00 - 7. aug 15:00

wind 10 knots from S (180°) visibility > 10km
Nellis Air Force Base in United States of America at 570m

Latest 5 airports